Terminal Aerodrome Forecast
Issued by NWS Central Illinois

Home | Current Version | Previous Version | Text Only | Print | Product List | Glossary On
Versions: 1 2 3 4 5 6 7 8 9 10 11 12 13 14 15 16 17 18 19 20 21 22 23 24 25 26 27
000
FTUS43 KILX 301601 AAC
TAFPIA
TAF AMD
KPIA 301601Z 3016/3112 35005KT P6SM SCT015 BKN025
      TEMPO 3016/3017 SCT025 BKN035
     FM301700 34005KT P6SM BKN035
     FM301900 33004KT P6SM VCTS BKN030CB
     FM310300 VRB04KT P6SM BKN050
     FM310900 VRB03KT 3SM BR SCT003=

USA.gov is the U.S. government's official web portal to all federal, state and local government web resources and services.